Time;durP1;ratioP1;P1;durP2;ratioP2;P2;SDS_P1;SDS_P2;PMS_P1;PMS_P2;Temp;Humidity;BMP_temperature;BMP_pressure;BME280_temperature;BME280_humidity;BME280_pressure;Samples;Min_cycle;Max_cycle;Signal;HPM_P1;HPM_P2
2023/04/22 00:02:02;;;;;;;2.25;2.10;;;;;;;14.98;59.77;100778.16;5021032;28;20037;-49
2023/04/22 00:04:28;;;;;;;2.58;2.38;;;;;;;14.99;59.69;100781.69;5018734;28;20033;-50
2023/04/22 00:06:54;;;;;;;2.75;2.55;;;;;;;14.98;59.48;100779.97;5015606;28;20042;-49
2023/04/22 00:09:19;;;;;;;2.30;2.10;;;;;;;14.97;59.70;100773.75;5027186;28;20026;-49
2023/04/22 00:11:45;;;;;;;2.42;2.22;;;;;;;14.97;59.63;100770.25;5020417;28;20133;-49
2023/04/22 00:14:10;;;;;;;3.30;2.20;;;;;;;14.98;59.41;100769.25;5020139;28;20036;-49
2023/04/22 00:16:35;;;;;;;2.75;2.50;;;;;;;14.97;59.42;100765.72;5021946;28;20463;-49
2023/04/22 00:19:01;;;;;;;2.47;2.28;;;;;;;14.95;59.86;100761.47;5013990;28;20087;-50
2023/04/22 00:21:27;;;;;;;2.60;2.40;;;;;;;14.95;59.32;100764.16;5025235;28;20022;-49
2023/04/22 00:23:53;;;;;;;2.50;2.30;;;;;;;14.96;59.58;100765.84;5020618;28;20103;-50
2023/04/22 00:26:18;;;;;;;2.80;2.13;;;;;;;14.96;59.76;100768.53;5024104;28;20125;-49
2023/04/22 00:28:43;;;;;;;2.47;2.17;;;;;;;14.94;59.73;100765.97;5020183;28;20025;-50
2023/04/22 00:31:09;;;;;;;2.53;2.28;;;;;;;14.95;59.38;100766.84;5017089;28;20041;-49
2023/04/22 00:33:35;;;;;;;2.15;1.95;;;;;;;14.94;59.52;100765.13;5027701;28;20056;-48
2023/04/22 00:36:00;;;;;;;2.05;1.90;;;;;;;14.94;59.60;100773.16;5020616;28;20100;-50
2023/04/22 00:38:25;;;;;;;2.20;2.10;;;;;;;14.93;59.66;100775.00;5029658;28;20360;-49
2023/04/22 00:40:51;;;;;;;3.22;2.25;;;;;;;14.94;59.34;100773.16;5024519;28;20430;-50
2023/04/22 00:43:16;;;;;;;2.45;2.25;;;;;;;14.93;59.31;100766.13;5034471;28;20029;-50
2023/04/22 00:45:42;;;;;;;2.70;2.50;;;;;;;14.93;59.68;100766.13;5025173;28;20017;-48
2023/04/22 00:48:08;;;;;;;2.22;2.08;;;;;;;14.92;59.26;100770.59;5023966;28;20160;-50
2023/04/22 00:50:33;;;;;;;2.50;2.30;;;;;;;14.93;59.54;100768.81;5020003;28;20040;-50
2023/04/22 00:52:59;;;;;;;2.22;2.03;;;;;;;14.92;59.43;100769.75;5022271;28;20538;-49
2023/04/22 00:55:24;;;;;;;2.58;2.33;;;;;;;14.91;59.33;100768.91;5024437;28;20572;-49
2023/04/22 00:57:51;;;;;;;2.15;2.05;;;;;;;14.92;59.32;100769.75;5020613;28;20029;-50
2023/04/22 01:00:18;;;;;;;2.20;2.00;;;;;;;14.90;59.14;100771.72;5020310;28;20044;-49
2023/04/22 01:02:44;;;;;;;2.13;2.00;;;;;;;14.91;59.19;100773.41;5028834;28;20392;-50
2023/04/22 01:05:10;;;;;;;4.63;2.03;;;;;;;14.90;59.23;100771.72;5024676;28;20033;-49
2023/04/22 01:07:36;;;;;;;1.80;1.70;;;;;;;14.88;59.22;100762.97;5031328;28;20109;-49
2023/04/22 01:10:03;;;;;;;2.47;2.28;;;;;;;14.89;59.11;100764.66;5020469;28;20096;-48
2023/04/22 01:12:28;;;;;;;2.38;2.10;;;;;;;14.88;59.16;100762.97;5022192;28;20113;-50
2023/04/22 01:14:54;;;;;;;2.92;2.00;;;;;;;14.89;59.21;100761.97;5021676;28;20035;-51
2023/04/22 01:17:20;;;;;;;2.38;2.17;;;;;;;14.88;59.04;100755.75;5021565;28;20034;-49
2023/04/22 01:19:47;;;;;;;2.20;2.05;;;;;;;14.88;59.51;100757.59;5027089;28;20060;-48
2023/04/22 01:22:13;;;;;;;2.50;2.30;;;;;;;14.88;59.08;100752.25;5019627;28;20483;-49
2023/04/22 01:24:39;;;;;;;2.65;2.17;;;;;;;14.86;59.00;100755.88;5024907;28;20487;-50
2023/04/22 01:27:05;;;;;;;2.30;2.10;;;;;;;14.86;59.10;100758.56;5023339;28;20042;-50
2023/04/22 01:29:31;;;;;;;1.98;1.88;;;;;;;14.85;59.14;100748.84;5025393;28;20084;-50
2023/04/22 01:31:56;;;;;;;2.45;1.70;;;;;;;14.85;59.00;100751.53;5016697;28;20033;-49
2023/04/22 01:34:22;;;;;;;2.28;1.80;;;;;;;14.85;59.13;100756.88;5026363;28;20550;-48
2023/04/22 01:36:48;;;;;;;1.83;1.70;;;;;;;14.85;59.31;100748.84;5020492;28;20025;-49
2023/04/22 01:39:14;;;;;;;2.25;1.98;;;;;;;14.85;58.77;100754.19;5028905;28;20071;-50
2023/04/22 01:41:40;;;;;;;3.25;2.10;;;;;;;14.85;59.27;100753.34;5017995;28;20053;-49
2023/04/22 01:44:05;;;;;;;2.03;1.92;;;;;;;14.84;59.24;100752.47;5023868;28;20033;-50
2023/04/22 01:46:32;;;;;;;2.17;1.98;;;;;;;14.83;59.20;100748.13;5021016;28;20049;-49
2023/04/22 01:48:57;;;;;;;1.88;1.77;;;;;;;14.83;59.36;100742.75;5020767;28;20538;-50
2023/04/22 01:51:23;;;;;;;2.00;1.90;;;;;;;14.83;59.21;100740.06;5008413;28;20121;-48
2023/04/22 01:53:49;;;;;;;2.67;2.17;;;;;;;14.83;58.95;100740.06;5022945;28;20373;-50
2023/04/22 01:56:15;;;;;;;2.22;1.83;;;;;;;14.82;58.92;100740.19;5028363;28;20430;-47
2023/04/22 01:58:41;;;;;;;2.00;1.80;;;;;;;14.82;59.46;100738.34;5021624;28;20034;-50
2023/04/22 02:01:10;;;;;;;1.90;1.80;;;;;;;14.82;59.30;100749.09;5003202;28;20128;-49
2023/04/22 02:03:36;;;;;;;2.15;1.95;;;;;;;14.81;59.13;100742.03;5025015;28;20196;-50
2023/04/22 02:06:02;;;;;;;2.13;1.92;;;;;;;14.81;58.75;100739.34;5022694;28;20384;-48
2023/04/22 02:08:27;;;;;;;2.20;2.03;;;;;;;14.82;58.94;100742.88;5025259;28;20034;-50
2023/04/22 02:10:53;;;;;;;2.10;2.00;;;;;;;14.81;59.06;100746.53;5019013;28;20040;-50
2023/04/22 02:13:18;;;;;;;1.85;1.75;;;;;;;14.80;59.08;100740.31;5015972;28;20079;-49
2023/04/22 02:15:44;;;;;;;2.38;2.17;;;;;;;14.80;58.55;100748.38;5024821;28;20048;-49
2023/04/22 02:18:09;;;;;;;1.63;1.52;;;;;;;14.80;58.81;100745.69;5023307;28;20064;-50
2023/04/22 02:20:35;;;;;;;1.90;1.80;;;;;;;14.80;59.01;100742.16;5008181;28;20029;-49
2023/04/22 02:23:01;;;;;;;1.80;1.70;;;;;;;14.80;58.85;100742.16;5015939;28;20042;-50
2023/04/22 02:25:28;;;;;;;3.17;1.90;;;;;;;14.78;58.82;100736.91;5022787;28;20438;-48
2023/04/22 02:27:53;;;;;;;1.98;1.75;;;;;;;14.77;58.72;100724.47;5019610;28;20033;-50
2023/04/22 02:30:19;;;;;;;2.17;1.98;;;;;;;14.78;58.47;100726.19;5022788;28;20226;-50
2023/04/22 02:32:45;;;;;;;1.70;1.60;;;;;;;14.78;58.97;100731.56;5026444;28;20026;-50
2023/04/22 02:35:10;;;;;;;2.15;1.90;;;;;;;14.77;59.00;100729.00;5014950;28;20041;-49
2023/04/22 02:37:36;;;;;;;2.45;1.80;;;;;;;14.77;58.79;100721.81;5023532;28;20471;-50
2023/04/22 02:40:02;;;;;;;1.90;1.80;;;;;;;14.77;58.52;100723.63;5018353;28;20060;-49
2023/04/22 02:42:28;;;;;;;2.10;1.80;;;;;;;14.77;58.62;100721.81;5023605;28;20025;-48
2023/04/22 02:44:53;;;;;;;1.73;1.63;;;;;;;14.77;59.02;100723.63;5021648;28;20065;-49
2023/04/22 02:47:18;;;;;;;1.77;1.67;;;;;;;14.76;58.90;100730.84;5019193;28;20104;-50
2023/04/22 02:49:44;;;;;;;1.95;1.83;;;;;;;14.76;58.53;100725.47;5024228;28;20038;-46
2023/04/22 02:52:09;;;;;;;1.70;1.60;;;;;;;14.76;58.42;100721.97;5019086;28;20476;-48
2023/04/22 02:54:35;;;;;;;1.70;1.60;;;;;;;14.77;58.98;100723.63;5024375;28;20041;-50
2023/04/22 02:57:00;;;;;;;1.90;1.80;;;;;;;14.76;58.65;100722.81;5023604;28;20034;-50
2023/04/22 02:59:26;;;;;;;1.77;1.67;;;;;;;14.75;58.94;100714.88;5020853;28;20029;-50
2023/04/22 03:01:51;;;;;;;1.70;1.60;;;;;;;14.75;58.61;100718.41;5021316;28;20523;-49
2023/04/22 03:04:17;;;;;;;1.50;1.40;;;;;;;14.74;58.58;100714.03;5014429;28;20387;-49
2023/04/22 03:06:42;;;;;;;2.10;1.90;;;;;;;14.75;58.58;100709.53;5022256;28;20021;-50
2023/04/22 03:09:07;;;;;;;2.03;1.80;;;;;;;14.74;58.49;100707.84;5021623;28;20033;-50
2023/04/22 03:11:33;;;;;;;2.10;1.90;;;;;;;14.74;58.85;100703.31;5023107;28;20036;-49
2023/04/22 03:13:58;;;;;;;1.65;1.55;;;;;;;14.75;58.61;100714.88;5024574;28;20060;-48
2023/04/22 03:16:23;;;;;;;1.77;1.67;;;;;;;14.73;58.55;100701.59;5019174;28;20032;-49
2023/04/22 03:18:49;;;;;;;2.22;1.65;;;;;;;14.74;58.66;100703.31;5020737;28;20036;-49
2023/04/22 03:21:14;;;;;;;2.10;1.90;;;;;;;14.72;58.56;100705.28;5018633;28;20060;-49
2023/04/22 03:23:40;;;;;;;1.85;1.75;;;;;;;14.73;58.72;100706.13;5025305;28;20094;-50
2023/04/22 03:26:05;;;;;;;1.60;1.50;;;;;;;14.73;58.82;100706.13;5018048;28;20041;-49
2023/04/22 03:28:31;;;;;;;2.72;1.90;;;;;;;14.71;58.97;100698.22;5020276;28;20104;-51
2023/04/22 03:30:56;;;;;;;1.67;1.58;;;;;;;14.71;58.80;100695.53;5025547;28;20041;-50
2023/04/22 03:33:21;;;;;;;2.17;1.98;;;;;;;14.71;58.75;100690.16;5019075;28;20025;-50
2023/04/22 03:35:50;;;;;;;1.95;1.77;;;;;;;14.71;58.53;100692.00;5021116;28;20033;-49
2023/04/22 03:38:15;;;;;;;1.70;1.60;;;;;;;14.71;58.58;100687.47;5019472;28;20038;-47
2023/04/22 03:40:42;;;;;;;2.17;1.83;;;;;;;14.70;58.54;100684.94;5018779;28;20036;-49
2023/04/22 03:43:07;;;;;;;1.60;1.50;;;;;;;14.70;58.64;100684.94;5027164;28;20037;-49
2023/04/22 03:45:33;;;;;;;1.60;1.50;;;;;;;14.70;58.44;100685.81;5022002;28;20082;-50
2023/04/22 03:47:58;;;;;;;1.92;1.80;;;;;;;14.69;58.58;100673.38;5021132;28;20494;-50
2023/04/22 03:50:24;;;;;;;1.50;1.40;;;;;;;14.69;58.95;100678.72;5018609;28;20044;-49
2023/04/22 03:52:49;;;;;;;1.75;1.60;;;;;;;14.69;58.32;100675.22;5018130;28;20091;-50
2023/04/22 03:55:15;;;;;;;1.85;1.75;;;;;;;14.68;58.46;100669.00;5025357;28;20040;-49
2023/04/22 03:57:40;;;;;;;2.05;1.92;;;;;;;14.69;58.52;100669.84;5021195;28;20052;-49
2023/04/22 04:00:06;;;;;;;1.83;1.60;;;;;;;14.68;58.56;100671.69;5021686;28;20048;-47
2023/04/22 04:02:31;;;;;;;1.65;1.55;;;;;;;14.68;58.60;100669.00;5017539;28;20026;-49
2023/04/22 04:04:57;;;;;;;1.88;1.77;;;;;;;14.67;58.76;100664.59;5020304;28;20042;-50
2023/04/22 04:07:22;;;;;;;1.70;1.60;;;;;;;14.67;58.57;100667.28;5021928;28;20475;-50
2023/04/22 04:09:47;;;;;;;1.60;1.50;;;;;;;14.67;58.76;100659.25;5017774;28;20034;-49
2023/04/22 04:12:13;;;;;;;1.60;1.50;;;;;;;14.66;58.60;100650.38;5027586;28;20025;-50
2023/04/22 04:14:38;;;;;;;1.70;1.60;;;;;;;14.66;58.87;100654.88;5020993;28;20453;-46
2023/04/22 04:17:04;;;;;;;1.63;1.52;;;;;;;14.66;58.65;100657.56;5021179;28;20037;-49
2023/04/22 04:19:29;;;;;;;1.60;1.50;;;;;;;14.65;58.44;100656.69;5019094;28;20034;-48
2023/04/22 04:21:55;;;;;;;1.58;1.48;;;;;;;14.66;58.63;100658.41;5016133;28;20057;-49
2023/04/22 04:24:21;;;;;;;1.52;1.42;;;;;;;14.65;58.89;100662.06;5023985;28;20075;-49
2023/04/22 04:26:47;;;;;;;1.70;1.60;;;;;;;14.67;58.93;100659.25;5021824;28;20038;-48
2023/04/22 04:29:13;;;;;;;1.50;1.40;;;;;;;14.67;59.18;100656.56;5021341;28;20034;-47
2023/04/22 04:31:38;;;;;;;1.58;1.48;;;;;;;14.66;58.49;100650.38;5026632;28;20476;-49
2023/04/22 04:34:04;;;;;;;1.65;1.55;;;;;;;14.66;58.57;100642.31;5019924;28;20069;-49
2023/04/22 04:36:31;;;;;;;1.65;1.55;;;;;;;14.65;58.54;100651.34;5021169;28;20080;-49
2023/04/22 04:38:57;;;;;;;2.00;1.52;;;;;;;14.66;58.55;100641.50;5018312;28;20064;-50
2023/04/22 04:41:25;;;;;;;1.63;1.52;;;;;;;14.65;58.80;100653.16;5018476;28;20065;-49
2023/04/22 04:43:50;;;;;;;1.38;1.27;;;;;;;14.65;58.67;100647.81;5026052;28;20038;-49
2023/04/22 04:46:16;;;;;;;1.65;1.55;;;;;;;14.64;58.55;100644.28;5020188;28;20037;-48
2023/04/22 04:48:41;;;;;;;1.45;1.35;;;;;;;14.64;58.27;100651.47;5021839;28;20029;-49
2023/04/22 04:51:08;;;;;;;1.77;1.67;;;;;;;14.65;59.00;100653.16;5017052;28;20088;-49
2023/04/22 04:53:33;;;;;;;1.30;1.20;;;;;;;14.63;58.86;100652.44;5018701;28;20061;-50
2023/04/22 04:55:59;;;;;;;1.58;1.48;;;;;;;14.63;58.80;100657.81;5023645;28;20076;-50
2023/04/22 04:58:24;;;;;;;1.90;1.52;;;;;;;14.63;58.80;100658.66;5017103;28;20041;-49
2023/04/22 05:00:50;;;;;;;1.63;1.52;;;;;;;14.62;58.75;100654.28;5026599;28;20460;-50
2023/04/22 05:03:15;;;;;;;1.60;1.50;;;;;;;14.64;59.03;100659.50;5016448;28;20034;-51
2023/04/22 05:05:40;;;;;;;1.67;1.50;;;;;;;14.62;59.03;100654.28;5020378;28;20025;-50
2023/04/22 05:08:06;;;;;;;1.90;1.80;;;;;;;14.63;58.93;100652.44;5017051;28;20033;-49
2023/04/22 05:10:31;;;;;;;1.75;1.65;;;;;;;14.62;59.12;100642.69;5017111;28;20036;-50
2023/04/22 05:12:57;;;;;;;1.60;1.50;;;;;;;14.62;58.98;100656.09;5027456;28;20026;-48
2023/04/22 05:15:22;;;;;;;1.75;1.48;;;;;;;14.62;58.56;100662.31;5022360;28;20072;-49
2023/04/22 05:17:47;;;;;;;1.60;1.50;;;;;;;14.62;58.68;100653.41;5026390;28;20038;-49
2023/04/22 05:20:13;;;;;;;1.98;1.52;;;;;;;14.62;59.44;100653.41;5019466;28;20037;-49
2023/04/22 05:22:41;;;;;;;1.73;1.63;;;;;;;14.62;58.64;100642.69;5020875;28;20101;-49
2023/04/22 05:25:07;;;;;;;1.40;1.30;;;;;;;14.61;58.74;100643.69;5025602;28;20034;-50
2023/04/22 05:27:33;;;;;;;3.53;1.60;;;;;;;14.60;58.88;100636.63;5022261;28;20036;-49
2023/04/22 05:29:58;;;;;;;1.60;1.50;;;;;;;14.61;59.19;100649.06;5027275;28;20033;-49
2023/04/22 05:32:24;;;;;;;1.52;1.42;;;;;;;14.62;58.70;100656.09;5021941;28;20037;-50
2023/04/22 05:34:49;;;;;;;1.33;1.23;;;;;;;14.60;59.12;100660.75;5019195;28;20036;-50
2023/04/22 05:37:15;;;;;;;1.63;1.52;;;;;;;14.60;58.83;100655.38;5025546;28;20119;-48
2023/04/22 05:39:40;;;;;;;1.35;1.25;;;;;;;14.59;59.11;100654.53;5007754;28;20041;-48
2023/04/22 05:42:05;;;;;;;1.92;1.83;;;;;;;14.60;58.99;100652.69;5018479;28;20033;-49
2023/04/22 05:44:31;;;;;;;1.60;1.50;;;;;;;14.61;58.98;100649.06;5003926;28;20038;-48
2023/04/22 05:46:56;;;;;;;1.73;1.35;;;;;;;14.60;59.12;100647.34;5025089;28;20057;-48
2023/04/22 05:49:21;;;;;;;1.80;1.70;;;;;;;14.61;59.08;100651.72;5021695;28;20088;-48
2023/04/22 05:51:47;;;;;;;1.50;1.40;;;;;;;14.60;59.21;100647.34;5022910;28;20087;-50
2023/04/22 05:54:12;;;;;;;1.55;1.42;;;;;;;14.60;59.26;100650.00;5021987;28;20057;-49
2023/04/22 05:56:38;;;;;;;1.50;1.40;;;;;;;14.61;59.51;100643.69;5021243;28;20042;-49
2023/04/22 05:59:03;;;;;;;1.65;1.55;;;;;;;14.60;59.48;100652.69;5017384;28;20030;-48
2023/04/22 06:01:28;;;;;;;1.65;1.50;;;;;;;14.60;59.37;100650.00;5017462;28;20472;-48
2023/04/22 06:03:54;;;;;;;1.77;1.67;;;;;;;14.60;59.63;100642.84;5021044;28;20025;-49
2023/04/22 06:06:19;;;;;;;2.35;1.65;;;;;;;14.61;59.25;100643.69;5020577;28;20553;-49
2023/04/22 06:08:45;;;;;;;2.97;1.60;;;;;;;14.60;59.61;100631.25;5022933;28;20041;-48
2023/04/22 06:11:10;;;;;;;1.73;1.50;;;;;;;14.60;59.38;100637.50;5022570;28;20034;-48
2023/04/22 06:13:36;;;;;;;1.45;1.35;;;;;;;14.61;59.67;100638.34;5003946;28;20036;-49
2023/04/22 06:16:03;;;;;;;1.40;1.30;;;;;;;14.61;59.80;100635.66;5015764;28;20053;-48
2023/04/22 06:18:31;;;;;;;1.75;1.55;;;;;;;14.61;59.33;100633.81;5023316;28;20038;-50
2023/04/22 06:20:56;;;;;;;1.50;1.40;;;;;;;14.60;59.49;100632.13;5017743;28;20491;-50
2023/04/22 06:23:21;;;;;;;1.90;1.35;;;;;;;14.61;59.29;100638.34;5030114;28;20021;-52
2023/04/22 06:25:47;;;;;;;1.73;1.60;;;;;;;14.60;58.99;100632.13;5018271;28;20454;-51
2023/04/22 06:28:12;;;;;;;1.88;1.67;;;;;;;14.61;59.31;100627.63;5024541;28;20025;-52
2023/04/22 06:30:38;;;;;;;1.70;1.60;;;;;;;14.61;59.07;100625.78;5025829;28;20468;-50
2023/04/22 06:33:03;;;;;;;1.50;1.40;;;;;;;14.61;58.79;100624.94;5023831;28;20040;-50
2023/04/22 06:35:29;;;;;;;1.45;1.35;;;;;;;14.61;59.22;100622.25;5021843;28;20057;-51
2023/04/22 06:37:54;;;;;;;2.45;1.55;;;;;;;14.61;58.83;100624.94;5025128;28;20048;-51
2023/04/22 06:40:19;;;;;;;1.25;1.15;;;;;;;14.60;58.92;100626.78;5015850;28;20032;-51
2023/04/22 06:42:45;;;;;;;2.78;1.20;;;;;;;14.61;59.10;100632.97;5000753;28;20395;-50
2023/04/22 06:45:11;;;;;;;2.25;1.50;;;;;;;14.61;59.10;100627.63;5024901;28;20116;-51
2023/04/22 06:47:38;;;;;;;1.38;1.27;;;;;;;14.60;58.86;100625.91;5022478;28;20030;-51
2023/04/22 06:50:06;;;;;;;1.50;1.40;;;;;;;14.61;58.99;100619.56;5020202;28;20042;-51
2023/04/22 06:52:31;;;;;;;1.50;1.20;;;;;;;14.61;59.05;100616.91;5020440;28;20028;-51
2023/04/22 06:54:56;;;;;;;2.05;1.17;;;;;;;14.61;58.91;100612.38;5022634;28;20044;-51
2023/04/22 06:57:22;;;;;;;1.40;1.30;;;;;;;14.60;59.20;100602.66;5024043;28;20045;-51
2023/04/22 06:59:47;;;;;;;5.70;1.50;;;;;;;14.61;58.78;100611.53;5019747;28;20035;-49
2023/04/22 07:02:13;;;;;;;1.42;1.33;;;;;;;14.61;59.04;100616.91;5035778;28;20485;-47
2023/04/22 07:04:38;;;;;;;1.30;1.20;;;;;;;14.61;59.13;100622.25;5019570;28;20385;-51
2023/04/22 07:07:03;;;;;;;1.15;1.05;;;;;;;14.61;58.78;100616.91;5016831;28;20140;-51
2023/04/22 07:09:29;;;;;;;1.55;1.45;;;;;;;14.62;58.67;100618.59;5009100;28;20056;-49
2023/04/22 07:11:56;;;;;;;1.50;1.40;;;;;;;14.61;59.08;100619.56;5021669;28;20434;-51
2023/04/22 07:14:23;;;;;;;1.40;1.30;;;;;;;14.63;59.23;100622.97;5022983;28;20395;-51
2023/04/22 07:16:49;;;;;;;1.50;1.40;;;;;;;14.62;59.25;100618.59;5001110;28;20033;-50
2023/04/22 07:19:14;;;;;;;2.17;1.25;;;;;;;14.62;59.16;100613.22;5014800;28;20034;-50
2023/04/22 07:21:39;;;;;;;1.50;1.40;;;;;;;14.62;59.21;100614.09;5020649;28;20082;-51
2023/04/22 07:24:05;;;;;;;1.50;1.40;;;;;;;14.62;59.24;100603.38;5018975;28;20398;-50
2023/04/22 07:26:33;;;;;;;1.52;1.42;;;;;;;14.61;58.92;100607.03;5024638;28;20124;-49
2023/04/22 07:28:58;;;;;;;1.55;1.42;;;;;;;14.62;58.92;100605.19;5027865;28;20033;-50
2023/04/22 07:31:23;;;;;;;2.03;1.65;;;;;;;14.61;59.38;100609.69;5025000;28;20029;-51
2023/04/22 07:33:49;;;;;;;4.00;1.42;;;;;;;14.62;59.11;100619.47;5020384;28;20036;-50
2023/04/22 07:36:14;;;;;;;1.60;1.50;;;;;;;14.62;58.87;100614.09;5020570;28;20045;-51
2023/04/22 07:38:40;;;;;;;1.75;1.50;;;;;;;14.62;58.95;100618.59;5025148;28;20123;-51
2023/04/22 07:41:05;;;;;;;2.05;1.48;;;;;;;14.63;58.97;100612.25;5017780;28;20033;-50
2023/04/22 07:43:30;;;;;;;1.50;1.40;;;;;;;14.61;59.38;100607.03;5019798;28;20022;-49
2023/04/22 07:45:56;;;;;;;1.75;1.60;;;;;;;14.61;59.21;100614.22;5018609;28;20083;-51
2023/04/22 07:48:21;;;;;;;1.60;1.50;;;;;;;14.62;59.24;100619.47;5021039;28;20041;-50
2023/04/22 07:50:47;;;;;;;1.70;1.60;;;;;;;14.62;59.46;100619.47;5020927;28;20049;-51
2023/04/22 07:53:14;;;;;;;2.03;1.83;;;;;;;14.62;59.41;100615.91;5015263;28;20464;-50
2023/04/22 07:55:39;;;;;;;1.60;1.40;;;;;;;14.62;59.21;100616.78;5022659;28;20049;-51
2023/04/22 07:58:05;;;;;;;1.50;1.40;;;;;;;14.63;59.22;100590.81;5021558;28;20032;-48
2023/04/22 08:00:34;;;;;;;2.05;1.70;;;;;;;14.61;58.98;100590.94;5021248;28;20103;-50
2023/04/22 08:03:00;;;;;;;1.85;1.45;;;;;;;14.62;59.35;100591.78;5021027;28;20031;-52
2023/04/22 08:05:25;;;;;;;1.38;1.27;;;;;;;14.62;59.17;100594.47;5014743;28;20112;-50
2023/04/22 08:07:50;;;;;;;1.58;1.48;;;;;;;14.64;59.02;100589.81;5020100;28;20057;-50
2023/04/22 08:10:16;;;;;;;1.60;1.50;;;;;;;14.63;59.52;100582.78;5012842;28;20384;-51
2023/04/22 08:12:41;;;;;;;1.40;1.30;;;;;;;14.63;59.03;100572.06;5013606;28;20034;-50
2023/04/22 08:15:07;;;;;;;1.65;1.55;;;;;;;14.63;59.34;100572.91;5007970;28;20045;-52
2023/04/22 08:17:36;;;;;;;1.45;1.35;;;;;;;14.63;59.51;100566.72;5013829;28;20072;-51
2023/04/22 08:20:02;;;;;;;1.70;1.60;;;;;;;14.63;59.19;100572.91;5012394;28;20036;-50
2023/04/22 08:22:28;;;;;;;2.70;1.60;;;;;;;14.63;59.34;100572.91;5024293;28;20112;-51
2023/04/22 08:24:53;;;;;;;1.50;1.40;;;;;;;14.64;59.14;100577.31;5012921;28;20113;-50
2023/04/22 08:27:21;;;;;;;2.00;1.80;;;;;;;14.64;59.37;100573.75;5020832;28;20033;-49
2023/04/22 08:29:46;;;;;;;1.92;1.50;;;;;;;14.65;59.57;100572.78;5017099;28;20092;-50
2023/04/22 08:32:11;;;;;;;1.60;1.50;;;;;;;14.65;59.13;100567.41;5016301;28;20384;-52
2023/04/22 08:34:37;;;;;;;1.70;1.60;;;;;;;14.64;59.20;100563.03;5012657;28;20040;-50
2023/04/22 08:37:02;;;;;;;2.40;1.52;;;;;;;14.64;59.58;100574.63;4997527;28;20029;-51
2023/04/22 08:39:28;;;;;;;1.55;1.45;;;;;;;14.65;59.27;100559.38;5024381;28;20044;-51
2023/04/22 08:41:55;;;;;;;1.80;1.70;;;;;;;14.65;59.48;100570.09;5013881;28;20029;-51
2023/04/22 08:44:21;;;;;;;1.83;1.50;;;;;;;14.65;59.39;100560.22;5026941;28;20494;-51
2023/04/22 08:46:47;;;;;;;2.13;1.58;;;;;;;14.65;59.28;100540.63;5021884;28;20031;-51
2023/04/22 08:49:17;;;;;;;2.13;1.55;;;;;;;14.66;59.64;100534.31;5025789;28;20069;-51
2023/04/22 08:51:43;;;;;;;1.75;1.65;;;;;;;14.65;59.46;100522.72;5016880;28;20038;-51
2023/04/22 08:54:09;;;;;;;1.80;1.70;;;;;;;14.66;59.19;100527.09;5016860;28;20033;-51
2023/04/22 08:56:39;;;;;;;2.10;1.40;;;;;;;14.66;59.42;100519.06;5025654;28;20373;-52
2023/04/22 08:59:04;;;;;;;1.52;1.42;;;;;;;14.67;59.74;100519.91;5020713;28;20468;-51
2023/04/22 09:01:30;;;;;;;1.77;1.67;;;;;;;14.66;59.62;100521.75;5016913;28;20034;-50
2023/04/22 09:03:59;;;;;;;2.33;2.13;;;;;;;14.67;59.44;100525.25;5029832;28;20030;-50
2023/04/22 09:06:24;;;;;;;1.67;1.58;;;;;;;14.68;59.26;100521.63;5017510;28;20048;-51
2023/04/22 09:08:49;;;;;;;1.80;1.40;;;;;;;14.68;59.53;100521.63;5017843;28;20479;-49
2023/04/22 09:11:16;;;;;;;2.08;1.90;;;;;;;14.69;59.71;100522.47;5024939;28;20407;-51
2023/04/22 09:13:41;;;;;;;3.63;1.70;;;;;;;14.68;59.58;100521.63;5022623;28;20041;-51
2023/04/22 09:16:07;;;;;;;1.73;1.63;;;;;;;14.69;59.57;100515.25;5025074;28;20034;-50
2023/04/22 09:18:40;;;;;;;4.15;1.55;;;;;;;14.69;59.64;100517.09;5019400;28;20533;-50
2023/04/22 09:21:06;;;;;;;1.83;1.55;;;;;;;14.70;59.60;100510.75;5025491;28;20040;-51
2023/04/22 09:23:31;;;;;;;1.65;1.55;;;;;;;14.70;59.73;100514.28;5019422;28;20415;-50
2023/04/22 09:25:58;;;;;;;2.03;1.83;;;;;;;14.70;59.66;100514.28;5022842;28;20249;-51
2023/04/22 09:28:23;;;;;;;1.75;1.65;;;;;;;14.71;59.83;100515.13;5024065;28;20064;-51
2023/04/22 09:30:48;;;;;;;1.73;1.52;;;;;;;14.71;60.03;100512.44;5025561;28;20480;-51
2023/04/22 09:33:16;;;;;;;1.70;1.60;;;;;;;14.71;59.75;100510.63;5020169;28;20110;-50
2023/04/22 09:35:42;;;;;;;2.33;1.75;;;;;;;14.71;60.20;100505.25;5021115;28;20041;-51
2023/04/22 09:38:10;;;;;;;2.30;2.10;;;;;;;14.71;59.77;100507.94;5024040;28;20036;-51
2023/04/22 09:40:37;;;;;;;2.78;2.28;;;;;;;14.73;59.97;100502.44;5023107;28;20033;-51
2023/04/22 09:43:07;;;;;;;2.35;2.10;;;;;;;14.73;59.96;100492.56;5025838;28;20070;-49
2023/04/22 09:45:37;;;;;;;5.60;2.13;;;;;;;14.74;59.87;100507.69;5020278;28;20035;-49
2023/04/22 09:48:10;;;;;;;3.05;2.42;;;;;;;14.75;59.90;100512.03;5023683;28;20548;-51
2023/04/22 09:50:43;;;;;;;3.28;2.17;;;;;;;14.75;60.45;100522.75;5025746;28;20028;-51
2023/04/22 09:53:11;;;;;;;4.30;1.80;;;;;;;14.75;60.21;100521.91;5023825;28;20033;-51
2023/04/22 09:55:39;;;;;;;2.28;2.03;;;;;;;14.75;59.99;100522.75;5019333;28;20504;-51
2023/04/22 09:58:07;;;;;;;2.67;2.13;;;;;;;14.76;60.22;100523.63;5025430;28;20029;-49
2023/04/22 10:00:34;;;;;;;3.45;1.85;;;;;;;14.76;60.17;100515.59;5018880;28;20117;-50
2023/04/22 10:03:00;;;;;;;2.15;1.95;;;;;;;14.77;60.61;100510.06;5017752;28;20038;-51
2023/04/22 10:05:28;;;;;;;2.75;2.30;;;;;;;14.78;60.65;100513.63;5028912;28;20143;-48
2023/04/22 10:07:54;;;;;;;2.47;2.28;;;;;;;14.77;60.61;100504.72;5014811;28;20034;-50
2023/04/22 10:10:19;;;;;;;2.45;2.22;;;;;;;14.78;60.50;100513.63;5021523;28;20055;-51
2023/04/22 10:12:46;;;;;;;3.70;2.30;;;;;;;14.79;60.40;100515.31;5022575;28;20116;-51
2023/04/22 10:15:12;;;;;;;2.92;2.50;;;;;;;14.78;60.49;100517.16;5022590;28;20026;-51
2023/04/22 10:17:38;;;;;;;2.40;2.20;;;;;;;14.80;60.42;100508.97;5023402;28;20026;-50
2023/04/22 10:20:12;;;;;;;2.85;2.60;;;;;;;14.79;60.65;100513.50;5022686;28;20021;-51
2023/04/22 10:22:40;;;;;;;3.65;2.42;;;;;;;14.80;60.56;100520.53;5019960;28;20042;-50
2023/04/22 10:25:25;;;;;;;3.45;3.00;;;;;;;14.81;60.89;100527.63;5030275;28;20037;-51
2023/04/22 10:28:04;;;;;;;3.47;2.78;;;;;;;14.83;60.61;100524.78;5020895;28;20033;-51
2023/04/22 10:30:32;;;;;;;2.75;2.50;;;;;;;14.82;61.06;100523.94;5026714;28;20021;-48
2023/04/22 10:33:19;;;;;;;2.92;2.63;;;;;;;14.83;60.82;100519.41;5021099;28;20073;-47
2023/04/22 10:36:08;;;;;;;3.00;2.70;;;;;;;14.84;60.80;100527.31;5019687;28;20017;-50
2023/04/22 10:38:39;;;;;;;2.80;2.53;;;;;;;14.83;61.33;100527.44;5023139;28;20029;-50
2023/04/22 10:41:04;;;;;;;2.88;2.42;;;;;;;14.84;60.98;100515.75;5025300;28;20051;-51
2023/04/22 10:43:43;;;;;;;4.75;2.50;;;;;;;14.84;61.00;100519.28;5018773;28;20043;-51
2023/04/22 10:46:51;;;;;;;3.40;3.10;;;;;;;14.88;60.76;100494.91;5021921;28;20530;-51
2023/04/22 10:49:20;;;;;;;2.92;2.70;;;;;;;14.85;61.08;100493.34;4954217;28;20038;-50
2023/04/22 10:51:47;;;;;;;4.25;2.85;;;;;;;14.85;61.32;100496.03;5014088;28;20124;-51
2023/04/22 10:54:27;;;;;;;4.60;2.88;;;;;;;14.86;61.04;100503.91;5015841;28;20105;-51
2023/04/22 10:57:06;;;;;;;2.80;2.60;;;;;;;14.86;61.25;100501.22;5020736;28;20396;-51
2023/04/22 10:59:51;;;;;;;4.32;2.92;;;;;;;14.85;61.49;100509.44;5025325;28;20044;-50
2023/04/22 11:02:17;;;;;;;3.60;2.83;;;;;;;14.84;61.41;100516.59;5021735;28;20032;-50
2023/04/22 11:04:43;;;;;;;2.90;2.65;;;;;;;14.85;61.18;100517.47;5023155;28;20037;-48
2023/04/22 11:07:29;;;;;;;2.97;2.67;;;;;;;14.85;61.25;100520.16;5021824;28;20045;-51
2023/04/22 11:09:59;;;;;;;2.70;2.50;;;;;;;14.84;61.38;100521.97;5016538;28;20034;-49
2023/04/22 11:12:34;;;;;;;2.65;2.42;;;;;;;14.85;61.14;100517.47;5022496;28;20406;-50
2023/04/22 11:15:06;;;;;;;3.42;2.90;;;;;;;14.84;61.17;100530.00;5021863;28;20040;-51
2023/04/22 11:17:32;;;;;;;2.88;2.58;;;;;;;14.83;61.58;100525.66;5003931;28;20055;-51
2023/04/22 11:19:58;;;;;;;6.38;3.03;;;;;;;14.84;61.19;100527.31;5020656;28;20112;-51
2023/04/22 11:22:24;;;;;;;3.03;2.72;;;;;;;14.85;61.49;100522.84;5014829;28;20444;-51